Last 30 Days

Middletown-South

Daily Data | America/Los_Angeles
as of 5/5/26 1:54 PM PDT
Date Daily Max Temp (°F) Time of Max Temp Daily Min Temp (°F) Time of Min Temp Daily Rain (In) Month Precip (In) Season Precip (In) Wind Spd (mph) Daily Max Wind (mph) Time of Max Wind Max Wind Dir (°) Dew Pt (°F) Daily Max RH (%) Daily Min RH (%) Hrs <= 32F (hrs) Hrs <= 28F (hrs) Daily Leaf Wet (Hrs) Degree Hrs (hrs) Hrs 70-85F (hrs) Hrs > 95F (hrs) Powdery Mildew Stress (pts) Storm Total (In) Daily Max Rain Intensity (In/Hr) Time of Max Rain Intensity Max 1 Min Rain (In) Max 1 Min Rain Time Max 15 Min Rain (In) Max 15 Min Precip Time Max 60 Min Rain (In) GDDs (DL) MinBV Day (V)
5/4/26 63.9 1111 47.2 0458 0.33 0.33 50.48 2.9 16.9 1656 SW | 221 47.7 94 52 0.0 0.0 9.8 0.0 0.00 0.00 30 0.33 0.33 1342 0.01 1332 0.06 1346 0.17 3.8 12.5
5/3/26 65.2 1402 46.3 0559 0.00 0.00 50.15 3.1 20.6 1739 SW | 225 46.8 97 53 0.0 0.0 5.3 0.0 0.00 0.00 40 - - - - - - - - 5.4 12.5
5/2/26 75.5 1345 47.4 0435 0.00 0.00 50.15 1.8 11.4 1530 W | 277 48.5 96 30 0.0 0.0 6.3 35.3 2.96 0.00 50 - - - - - - - - 8.4 12.4
5/1/26 82.5 1320 46.0 0632 0.00 0.00 50.15 2.8 17.4 1648 SW | 229 48.1 100 23 0.0 0.0 7.2 130.5 10.21 0.00 60 - - - - - - - - 15.0 12.5
4/30/26 80.2 1310 42.9 0545 0.00 7.07 50.15 3.2 18.5 1759 SW | 228 47.4 97 26 0.0 0.0 6.6 116.5 10.60 0.00 40 - - - - - - - - 14.0 12.4
4/29/26 77.1 1547 41.0 0609 0.00 7.07 50.15 2.6 16.9 1912 WSW | 244 44.9 100 27 0.0 0.0 7.3 72.4 8.03 0.00 20 - - - - - - - - 11.4 12.5
4/28/26 71.5 1451 39.0 0624 0.00 7.07 50.15 2.5 15.3 1708 SW | 231 43.4 100 26 0.0 0.0 7.3 24.4 0.68 0.00 0 - - - - - - - - 8.5 12.5
4/27/26 65.8 1611 43.9 0057 0.01 7.07 50.15 2.7 19.1 1834 SW | 221 43.5 96 34 0.0 0.0 7.2 0.0 0.00 0.00 0 - 0.01 0327 0.01 0328 0.01 0328 0.01 5.2 12.5
4/26/26 59.1 1509 40.5 0448 0.00 7.06 50.14 4.7 20.9 1448 SW | 216 41.4 94 47 0.0 0.0 0.6 0.0 0.00 0.00 0 - - - - - - - - 2.3 12.5
4/25/26 57.0 1318 42.0 0621 0.00 7.06 50.14 4.0 20.9 1701 SW | 215 44.5 100 66 0.0 0.0 8.1 0.0 0.00 0.00 0 - - - - - - - - 1.3 12.5
4/24/26 70.3 1333 39.8 0649 0.00 7.06 50.14 2.7 19.8 1740 SW | 214 45.2 100 33 0.0 0.0 9.8 14.9 0.03 0.00 0 - - - - - - - - 7.1 12.5
4/23/26 70.8 1508 37.7 0601 0.00 7.06 50.14 2.5 17.9 1736 SW | 216 41.8 100 28 0.0 0.0 8.8 17.9 0.27 0.00 0 - - - - - - - - 7.6 12.5
4/22/26 62.2 1640 42.1 0058 0.27 7.06 50.14 2.1 12.4 1243 E | 80 46.2 100 48 0.0 0.0 14.0 0.0 0.00 0.00 0 2.12 0.32 1300 0.01 0228 0.04 0428 0.09 2.5 12.4
4/21/26 60.4 1356 45.7 0959 0.29 6.79 49.87 3.1 18.8 1511 WSW | 242 44.5 100 50 0.0 0.0 11.1 0.0 0.00 0.00 0 1.85 1.64 0951 0.02 0948 0.17 0954 0.21 1.9 12.4
4/20/26 54.0 1546 43.1 0441 1.56 6.50 49.58 1.7 16.2 1743 SW | 220 45.5 100 58 0.0 0.0 17.0 0.0 0.00 0.00 0 1.56 0.66 1630 0.01 0806 0.10 1640 0.23 0.5 12.4
4/19/26 71.4 1535 39.5 0642 0.00 4.94 48.02 3.0 20.1 2314 NNW | 341 29.7 94 11 0.0 0.0 1.3 9.4 0.17 0.00 0 - - - - - - - - 7.1 12.4
4/18/26 73.9 1509 36.7 0634 0.00 4.94 48.02 2.6 14.6 1709 SW | 227 37.2 94 18 0.0 0.0 3.3 42.2 4.06 0.00 0 - - - - - - - - 8.8 12.4
4/17/26 73.1 1527 37.5 0653 0.00 4.94 48.02 2.8 16.6 1730 WSW | 246 26.5 88 10 0.0 0.0 0.0 25.0 2.24 0.00 10 - - - - - - - - 7.9 12.4
4/16/26 66.6 1443 35.1 0605 0.00 4.94 48.02 4.3 26.7 1455 N | 11 24.2 100 8 0.0 0.0 7.1 1.0 0.00 0.00 20 - - - - - - - - 5.9 12.5
4/15/26 66.0 1549 36.7 0624 0.00 4.94 48.02 3.0 19.2 1507 SW | 236 42.5 100 40 0.0 0.0 7.6 0.0 0.00 0.00 30 - - - - - - - - 5.3 12.4
4/14/26 64.3 1615 36.2 0647 0.00 4.94 48.02 2.8 16.9 1513 SW | 229 42.8 100 44 0.0 0.0 10.6 0.0 0.00 0.00 40 - - - - - - - - 4.8 12.4
4/13/26 63.2 1758 34.1 0706 0.00 4.94 48.02 1.9 12.3 1740 WSW | 240 41.0 100 41 0.0 0.0 10.5 0.0 0.00 0.00 50 - - - - - - - - 3.8 12.4
4/12/26 53.4 1413 40.7 0025 0.95 4.94 48.02 4.7 26.8 0825 W | 267 43.0 98 63 0.0 0.0 14.2 0.0 0.00 0.00 60 4.51 2.12 0820 0.02 0821 0.12 1535 0.28 0.3 12.4
4/11/26 54.9 1425 41.7 1836 1.97 3.99 47.07 4.1 31.0 1613 WSW | 242 45.7 98 66 0.0 0.0 18.4 0.0 0.00 0.00 70 3.56 1.71 1653 0.03 1656 0.21 1701 0.52 0.9 12.4
4/10/26 60.1 1455 48.1 0304 1.59 2.02 45.10 1.6 12.5 1404 SW | 236 50.4 100 71 0.0 0.0 16.4 0.0 0.00 0.00 80 1.59 2.57 1403 0.04 1404 0.23 1413 0.44 2.3 12.5
4/9/26 68.7 1632 46.0 0401 0.00 0.43 43.51 3.7 22.5 1923 SSW | 193 49.1 98 50 0.0 0.0 8.1 5.7 0.00 0.00 90 - - - - - - - - 7.8 12.4
4/8/26 77.8 1531 44.8 0633 0.00 0.43 43.51 2.6 17.0 1436 W | 264 48.7 94 37 0.0 0.0 0.0 81.2 8.09 0.00 100 - - - - - - - - 12.0 12.4
4/7/26 76.9 1352 37.5 0649 0.00 0.43 43.51 2.6 18.7 1557 SW | 226 42.0 97 24 0.0 0.0 4.3 62.3 6.68 0.00 100 - - - - - - - - 10.1 12.4
4/6/26 76.2 1133 41.1 0652 0.00 0.43 43.51 3.4 18.7 1552 SW | 214 42.3 94 18 0.0 0.0 3.8 62.5 7.12 0.00 100 - - - - - - - - 10.5 12.4
4/5/26 80.2 1541 42.4 0524 0.00 0.43 43.51 2.0 12.6 1454 WNW | 302 42.8 92 20 0.0 0.0 0.0 93.3 8.16 0.00 90 - - - - - - - - 11.1 12.4
Max 82.5 - 48.1 - 1.97 7.07 50.48 4.7 31.0 - - 50.4 100 71 0.0 0.0 18.4 130.5 10.60 0.00 - 4.51 2.57 - 0.04 - 0.23 - 0.52 15.0 12.5
Avg - - - - - - - 2.9 - - - 42.9 - - 0.0 0.0 - - 2.31 0.00 - 2.22 - - - - - - - 6.5 -
Min 53.4 - 34.1 - 0.00 0.00 43.51 1.6 11.4 - - 24.2 88 8 0.0 0.0 0.0 0.0 0.00 0.00 - 0.33 0.01 - 0.01 - 0.01 - 0.01 0.3 12.4
Total - - - - - - - - - - - - - - 0.0 0.0 - - 69.31 0.00 - - - - - - - - - 193.6 -